sensor_id;sensor_type;location;lat;lon;timestamp;pressure;altitude;pressure_sealevel;temperature
69785;BMP280;14177;51.520;6.764;2023-03-01T00:01:39;102879.63;;;-0.77
69785;BMP280;14177;51.520;6.764;2023-03-01T00:04:07;102882.16;;;-0.77
69785;BMP280;14177;51.520;6.764;2023-03-01T00:06:35;102880.31;;;-0.79
69785;BMP280;14177;51.520;6.764;2023-03-01T00:09:02;102887.13;;;-0.80
69785;BMP280;14177;51.520;6.764;2023-03-01T00:11:31;102884.28;;;-0.86
69785;BMP280;14177;51.520;6.764;2023-03-01T00:14:01;102885.00;;;-0.88
69785;BMP280;14177;51.520;6.764;2023-03-01T00:16:32;102874.63;;;-0.91
69785;BMP280;14177;51.520;6.764;2023-03-01T00:19:00;102878.72;;;-0.95
69785;BMP280;14177;51.520;6.764;2023-03-01T00:21:28;102882.88;;;-0.97
69785;BMP280;14177;51.520;6.764;2023-03-01T00:23:56;102869.97;;;-1.00
69785;BMP280;14177;51.520;6.764;2023-03-01T00:26:25;102869.88;;;-1.01
69785;BMP280;14177;51.520;6.764;2023-03-01T00:28:53;102874.03;;;-1.03
69785;BMP280;14177;51.520;6.764;2023-03-01T00:31:26;102868.78;;;-1.06
69785;BMP280;14177;51.520;6.764;2023-03-01T00:34:00;102859.31;;;-1.09
69785;BMP280;14177;51.520;6.764;2023-03-01T00:36:31;102859.28;;;-1.10
69785;BMP280;14177;51.520;6.764;2023-03-01T00:39:00;102859.03;;;-1.15
69785;BMP280;14177;51.520;6.764;2023-03-01T00:41:27;102870.78;;;-1.18
69785;BMP280;14177;51.520;6.764;2023-03-01T00:43:55;102859.47;;;-1.23
69785;BMP280;14177;51.520;6.764;2023-03-01T00:46:25;102855.06;;;-1.25
69785;BMP280;14177;51.520;6.764;2023-03-01T00:48:54;102857.56;;;-1.27
69785;BMP280;14177;51.520;6.764;2023-03-01T00:51:24;102852.16;;;-1.33
69785;BMP280;14177;51.520;6.764;2023-03-01T00:53:59;102843.56;;;-1.35
69785;BMP280;14177;51.520;6.764;2023-03-01T00:56:27;102843.41;;;-1.38
69785;BMP280;14177;51.520;6.764;2023-03-01T00:58:54;102846.66;;;-1.40
69785;BMP280;14177;51.520;6.764;2023-03-01T01:01:26;102839.75;;;-1.43
69785;BMP280;14177;51.520;6.764;2023-03-01T01:04:01;102838.00;;;-1.44
69785;BMP280;14177;51.520;6.764;2023-03-01T01:06:35;102836.13;;;-1.48
69785;BMP280;14177;51.520;6.764;2023-03-01T01:09:06;102835.00;;;-1.53
69785;BMP280;14177;51.520;6.764;2023-03-01T01:11:34;102833.19;;;-1.55
69785;BMP280;14177;51.520;6.764;2023-03-01T01:14:04;102835.59;;;-1.58
69785;BMP280;14177;51.520;6.764;2023-03-01T01:16:31;102832.00;;;-1.62
69785;BMP280;14177;51.520;6.764;2023-03-01T01:18:59;102831.03;;;-1.64
69785;BMP280;14177;51.520;6.764;2023-03-01T01:21:28;102837.75;;;-1.66
69785;BMP280;14177;51.520;6.764;2023-03-01T01:23:56;102823.97;;;-1.69
69785;BMP280;14177;51.520;6.764;2023-03-01T01:26:30;102822.13;;;-1.72
69785;BMP280;14177;51.520;6.764;2023-03-01T01:29:00;102811.00;;;-1.74
69785;BMP280;14177;51.520;6.764;2023-03-01T01:31:29;102810.13;;;-1.74
69785;BMP280;14177;51.520;6.764;2023-03-01T01:33:58;102803.28;;;-1.75
69785;BMP280;14177;51.520;6.764;2023-03-01T01:36:26;102804.00;;;-1.78
69785;BMP280;14177;51.520;6.764;2023-03-01T01:38:54;102799.63;;;-1.80
69785;BMP280;14177;51.520;6.764;2023-03-01T01:41:23;102787.69;;;-1.81
69785;BMP280;14177;51.520;6.764;2023-03-01T01:44:16;102791.78;;;-1.85
69785;BMP280;14177;51.520;6.764;2023-03-01T01:49:47;102788.16;;;-1.88
69785;BMP280;14177;51.520;6.764;2023-03-01T01:52:21;102786.41;;;-1.89
69785;BMP280;14177;51.520;6.764;2023-03-01T01:55:00;102795.59;;;-1.93
69785;BMP280;14177;51.520;6.764;2023-03-01T01:57:40;102790.25;;;-1.97
69785;BMP280;14177;51.520;6.764;2023-03-01T02:00:16;102785.81;;;-2.01
69785;BMP280;14177;51.520;6.764;2023-03-01T02:02:46;102796.00;;;-2.01
69785;BMP280;14177;51.520;6.764;2023-03-01T02:05:38;102796.72;;;-2.04
69785;BMP280;14177;51.520;6.764;2023-03-01T02:08:10;102794.88;;;-2.06
69785;BMP280;14177;51.520;6.764;2023-03-01T02:10:39;102799.19;;;-2.05
69785;BMP280;14177;51.520;6.764;2023-03-01T02:13:08;102799.97;;;-2.06
69785;BMP280;14177;51.520;6.764;2023-03-01T02:15:38;102793.13;;;-2.07
69785;BMP280;14177;51.520;6.764;2023-03-01T02:18:07;102781.13;;;-2.10
69785;BMP280;14177;51.520;6.764;2023-03-01T02:20:50;102779.28;;;-2.12
69785;BMP280;14177;51.520;6.764;2023-03-01T02:23:22;102771.47;;;-2.15
69785;BMP280;14177;51.520;6.764;2023-03-01T02:26:05;102771.25;;;-2.20
69785;BMP280;14177;51.520;6.764;2023-03-01T02:28:38;102767.69;;;-2.23
69785;BMP280;14177;51.520;6.764;2023-03-01T02:31:08;102774.44;;;-2.24
69785;BMP280;14177;51.520;6.764;2023-03-01T02:33:55;102764.84;;;-2.29
69785;BMP280;14177;51.520;6.764;2023-03-01T02:36:29;102764.69;;;-2.32
69785;BMP280;14177;51.520;6.764;2023-03-01T02:39:00;102761.09;;;-2.36
69785;BMP280;14177;51.520;6.764;2023-03-01T02:41:38;102767.88;;;-2.36
69785;BMP280;14177;51.520;6.764;2023-03-01T02:44:05;102766.13;;;-2.37
69785;BMP280;14177;51.520;6.764;2023-03-01T02:46:49;102775.34;;;-2.39
69785;BMP280;14177;51.520;6.764;2023-03-01T02:49:26;102778.69;;;-2.40
69785;BMP280;14177;51.520;6.764;2023-03-01T02:55:13;102777.56;;;-2.45
69785;BMP280;14177;51.520;6.764;2023-03-01T02:57:44;102783.47;;;-2.46
69785;BMP280;14177;51.520;6.764;2023-03-01T03:00:17;102781.69;;;-2.47
69785;BMP280;14177;51.520;6.764;2023-03-01T03:02:51;102794.44;;;-2.47
69785;BMP280;14177;51.520;6.764;2023-03-01T03:05:24;102787.59;;;-2.48
69785;BMP280;14177;51.520;6.764;2023-03-01T03:07:56;102782.34;;;-2.51
69785;BMP280;14177;51.520;6.764;2023-03-01T03:10:28;102781.44;;;-2.51
69785;BMP280;14177;51.520;6.764;2023-03-01T03:13:00;102789.06;;;-2.51
69785;BMP280;14177;51.520;6.764;2023-03-01T03:15:28;102780.59;;;-2.52
69785;BMP280;14177;51.520;6.764;2023-03-01T03:17:58;102778.84;;;-2.53
69785;BMP280;14177;51.520;6.764;2023-03-01T03:20:27;102772.84;;;-2.53
69785;BMP280;14177;51.520;6.764;2023-03-01T03:22:57;102777.09;;;-2.54
69785;BMP280;14177;51.520;6.764;2023-03-01T03:25:29;102780.44;;;-2.55
69785;BMP280;14177;51.520;6.764;2023-03-01T03:27:57;102776.13;;;-2.56
69785;BMP280;14177;51.520;6.764;2023-03-01T03:30:31;102771.81;;;-2.57
69785;BMP280;14177;51.520;6.764;2023-03-01T03:32:59;102768.31;;;-2.59
69785;BMP280;14177;51.520;6.764;2023-03-01T03:35:33;102767.47;;;-2.59
69785;BMP280;14177;51.520;6.764;2023-03-01T03:38:04;102762.28;;;-2.61
69785;BMP280;14177;51.520;6.764;2023-03-01T03:41:03;102766.41;;;-2.63
69785;BMP280;14177;51.520;6.764;2023-03-01T03:43:32;102774.84;;;-2.64
69785;BMP280;14177;51.520;6.764;2023-03-01T03:45:59;102772.22;;;-2.65
69785;BMP280;14177;51.520;6.764;2023-03-01T03:48:27;102768.63;;;-2.69
69785;BMP280;14177;51.520;6.764;2023-03-01T03:50:56;102768.63;;;-2.69
69785;BMP280;14177;51.520;6.764;2023-03-01T03:53:27;102759.25;;;-2.70
69785;BMP280;14177;51.520;6.764;2023-03-01T03:55:55;102761.00;;;-2.69
69785;BMP280;14177;51.520;6.764;2023-03-01T03:58:24;102755.91;;;-2.69
69785;BMP280;14177;51.520;6.764;2023-03-01T04:00:55;102758.44;;;-2.69
69785;BMP280;14177;51.520;6.764;2023-03-01T04:03:25;102752.56;;;-2.68
69785;BMP280;14177;51.520;6.764;2023-03-01T04:05:53;102742.38;;;-2.68
69785;BMP280;14177;51.520;6.764;2023-03-01T04:08:22;102737.31;;;-2.68
69785;BMP280;14177;51.520;6.764;2023-03-01T04:10:53;102733.00;;;-2.69
69785;BMP280;14177;51.520;6.764;2023-03-01T04:13:23;102733.81;;;-2.70
69785;BMP280;14177;51.520;6.764;2023-03-01T04:15:53;102732.84;;;-2.72
69785;BMP280;14177;51.520;6.764;2023-03-01T04:18:23;102728.56;;;-2.73
69785;BMP280;14177;51.520;6.764;2023-03-01T04:20:53;102720.84;;;-2.74
69785;BMP280;14177;51.520;6.764;2023-03-01T04:23:22;102726.75;;;-2.75
69785;BMP280;14177;51.520;6.764;2023-03-01T04:25:56;102737.72;;;-2.76
69785;BMP280;14177;51.520;6.764;2023-03-01T04:30:57;102744.44;;;-2.77
69785;BMP280;14177;51.520;6.764;2023-03-01T04:33:25;102740.09;;;-2.79
69785;BMP280;14177;51.520;6.764;2023-03-01T04:35:52;102729.81;;;-2.81
69785;BMP280;14177;51.520;6.764;2023-03-01T04:38:20;102721.94;;;-2.85
69785;BMP280;14177;51.520;6.764;2023-03-01T04:40:48;102732.97;;;-2.85
69785;BMP280;14177;51.520;6.764;2023-03-01T04:43:15;102739.75;;;-2.85
69785;BMP280;14177;51.520;6.764;2023-03-01T04:45:42;102728.63;;;-2.87
69785;BMP280;14177;51.520;6.764;2023-03-01T04:48:09;102740.28;;;-2.91
69785;BMP280;14177;51.520;6.764;2023-03-01T04:50:36;102741.13;;;-2.92
69785;BMP280;14177;51.520;6.764;2023-03-01T04:53:03;102735.06;;;-2.94
69785;BMP280;14177;51.520;6.764;2023-03-01T04:55:30;102738.47;;;-2.93
69785;BMP280;14177;51.520;6.764;2023-03-01T04:57:58;102734.91;;;-2.97
69785;BMP280;14177;51.520;6.764;2023-03-01T05:00:25;102733.94;;;-2.99
69785;BMP280;14177;51.520;6.764;2023-03-01T05:02:55;102721.13;;;-3.00
69785;BMP280;14177;51.520;6.764;2023-03-01T05:05:28;102715.81;;;-3.05
69785;BMP280;14177;51.520;6.764;2023-03-01T05:08:00;102718.19;;;-3.08
69785;BMP280;14177;51.520;6.764;2023-03-01T05:10:30;102718.03;;;-3.11
69785;BMP280;14177;51.520;6.764;2023-03-01T05:12:59;102726.34;;;-3.13
69785;BMP280;14177;51.520;6.764;2023-03-01T05:15:28;102718.66;;;-3.15
69785;BMP280;14177;51.520;6.764;2023-03-01T05:17:59;102717.69;;;-3.17
69785;BMP280;14177;51.520;6.764;2023-03-01T05:20:28;102722.78;;;-3.17
69785;BMP280;14177;51.520;6.764;2023-03-01T05:22:58;102716.63;;;-3.20
69785;BMP280;14177;51.520;6.764;2023-03-01T05:25:27;102717.34;;;-3.23
69785;BMP280;14177;51.520;6.764;2023-03-01T05:27:54;102709.56;;;-3.26
69785;BMP280;14177;51.520;6.764;2023-03-01T05:30:21;102711.94;;;-3.29
69785;BMP280;14177;51.520;6.764;2023-03-01T05:32:50;102716.16;;;-3.29
69785;BMP280;14177;51.520;6.764;2023-03-01T05:35:22;102713.53;;;-3.31
69785;BMP280;14177;51.520;6.764;2023-03-01T05:37:51;102707.41;;;-3.34
69785;BMP280;14177;51.520;6.764;2023-03-01T05:40:23;102707.31;;;-3.36
69785;BMP280;14177;51.520;6.764;2023-03-01T05:42:56;102701.25;;;-3.38
69785;BMP280;14177;51.520;6.764;2023-03-01T05:45:26;102714.94;;;-3.36
69785;BMP280;14177;51.520;6.764;2023-03-01T05:47:54;102709.84;;;-3.36
69785;BMP280;14177;51.520;6.764;2023-03-01T05:50:26;102704.75;;;-3.36
69785;BMP280;14177;51.520;6.764;2023-03-01T05:53:13;102706.53;;;-3.35
69785;BMP280;14177;51.520;6.764;2023-03-01T05:55:41;102702.31;;;-3.34
69785;BMP280;14177;51.520;6.764;2023-03-01T05:58:16;102705.28;;;-3.27
69785;BMP280;14177;51.520;6.764;2023-03-01T06:00:45;102701.38;;;-3.20
69785;BMP280;14177;51.520;6.764;2023-03-01T06:03:14;102710.22;;;-3.14
69785;BMP280;14177;51.520;6.764;2023-03-01T06:05:42;102704.59;;;-3.08
69785;BMP280;14177;51.520;6.764;2023-03-01T06:08:11;102709.22;;;-3.01
69785;BMP280;14177;51.520;6.764;2023-03-01T06:10:39;102711.38;;;-2.93
69785;BMP280;14177;51.520;6.764;2023-03-01T06:13:06;102701.44;;;-2.88
69785;BMP280;14177;51.520;6.764;2023-03-01T06:15:33;102709.28;;;-2.84
69785;BMP280;14177;51.520;6.764;2023-03-01T06:18:00;102701.13;;;-2.78
69785;BMP280;14177;51.520;6.764;2023-03-01T06:20:28;102689.41;;;-2.75
69785;BMP280;14177;51.520;6.764;2023-03-01T06:22:56;102683.53;;;-2.74
69785;BMP280;14177;51.520;6.764;2023-03-01T06:25:26;102682.91;;;-2.70
69785;BMP280;14177;51.520;6.764;2023-03-01T06:27:53;102682.91;;;-2.70
69785;BMP280;14177;51.520;6.764;2023-03-01T06:30:23;102678.53;;;-2.72
69785;BMP280;14177;51.520;6.764;2023-03-01T06:32:51;102681.16;;;-2.71
69785;BMP280;14177;51.520;6.764;2023-03-01T06:35:19;102677.81;;;-2.70
69785;BMP280;14177;51.520;6.764;2023-03-01T06:37:47;102676.06;;;-2.71
69785;BMP280;14177;51.520;6.764;2023-03-01T06:40:16;102690.69;;;-2.67
69785;BMP280;14177;51.520;6.764;2023-03-01T06:42:48;102676.38;;;-2.65
69785;BMP280;14177;51.520;6.764;2023-03-01T06:45:18;102681.47;;;-2.65
69785;BMP280;14177;51.520;6.764;2023-03-01T06:47:45;102680.53;;;-2.67
69785;BMP280;14177;51.520;6.764;2023-03-01T06:50:14;102677.34;;;-2.63
69785;BMP280;14177;51.520;6.764;2023-03-01T06:52:41;102685.88;;;-2.62
69785;BMP280;14177;51.520;6.764;2023-03-01T06:55:12;102689.38;;;-2.60
69785;BMP280;14177;51.520;6.764;2023-03-01T06:57:39;102688.84;;;-2.53
69785;BMP280;14177;51.520;6.764;2023-03-01T07:00:07;102692.44;;;-2.50
69785;BMP280;14177;51.520;6.764;2023-03-01T07:02:34;102695.78;;;-2.51
69785;BMP280;14177;51.520;6.764;2023-03-01T07:05:02;102690.69;;;-2.51
69785;BMP280;14177;51.520;6.764;2023-03-01T07:07:29;102693.31;;;-2.49
69785;BMP280;14177;51.520;6.764;2023-03-01T07:09:56;102690.84;;;-2.48
69785;BMP280;14177;51.520;6.764;2023-03-01T07:12:24;102691.88;;;-2.44
69785;BMP280;14177;51.520;6.764;2023-03-01T07:14:52;102700.38;;;-2.28
69785;BMP280;14177;51.520;6.764;2023-03-01T07:17:21;102700.59;;;-1.90
69785;BMP280;14177;51.520;6.764;2023-03-01T07:19:48;102699.16;;;-1.50
69785;BMP280;14177;51.520;6.764;2023-03-01T07:22:14;102696.84;;;-1.10
69785;BMP280;14177;51.520;6.764;2023-03-01T07:24:42;102700.56;;;-0.65
69785;BMP280;14177;51.520;6.764;2023-03-01T07:27:10;102686.94;;;-0.26
69785;BMP280;14177;51.520;6.764;2023-03-01T07:29:37;102687.81;;;0.13
69785;BMP280;14177;51.520;6.764;2023-03-01T07:32:05;102682.72;;;0.56
69785;BMP280;14177;51.520;6.764;2023-03-01T07:34:33;102672.06;;;0.89
69785;BMP280;14177;51.520;6.764;2023-03-01T07:37:01;102671.28;;;1.14
69785;BMP280;14177;51.520;6.764;2023-03-01T07:39:29;102672.28;;;1.40
69785;BMP280;14177;51.520;6.764;2023-03-01T07:41:56;102666.34;;;1.66
69785;BMP280;14177;51.520;6.764;2023-03-01T07:44:23;102667.19;;;1.90
69785;BMP280;14177;51.520;6.764;2023-03-01T07:46:50;102675.50;;;2.08
69785;BMP280;14177;51.520;6.764;2023-03-01T07:49:19;102664.97;;;2.27
69785;BMP280;14177;51.520;6.764;2023-03-01T07:51:47;102666.66;;;2.51
69785;BMP280;14177;51.520;6.764;2023-03-01T07:54:14;102657.28;;;2.81
69785;BMP280;14177;51.520;6.764;2023-03-01T07:56:40;102657.94;;;3.04
69785;BMP280;14177;51.520;6.764;2023-03-01T07:59:07;102664.78;;;3.33
69785;BMP280;14177;51.520;6.764;2023-03-01T08:01:35;102654.44;;;3.60
69785;BMP280;14177;51.520;6.764;2023-03-01T08:04:07;102655.91;;;3.85
69785;BMP280;14177;51.520;6.764;2023-03-01T08:06:35;102653.09;;;4.08
69785;BMP280;14177;51.520;6.764;2023-03-01T08:09:03;102656.94;;;4.25
69785;BMP280;14177;51.520;6.764;2023-03-01T08:11:30;102648.63;;;4.38
69785;BMP280;14177;51.520;6.764;2023-03-01T08:13:57;102655.69;;;4.45
69785;BMP280;14177;51.520;6.764;2023-03-01T08:16:24;102649.69;;;4.46
69785;BMP280;14177;51.520;6.764;2023-03-01T08:18:52;102656.31;;;4.72
69785;BMP280;14177;51.520;6.764;2023-03-01T08:21:19;102657.88;;;5.05
69785;BMP280;14177;51.520;6.764;2023-03-01T08:23:46;102655.75;;;5.26
69785;BMP280;14177;51.520;6.764;2023-03-01T08:26:15;102655.34;;;5.50
69785;BMP280;14177;51.520;6.764;2023-03-01T08:28:44;102647.94;;;5.68
69785;BMP280;14177;51.520;6.764;2023-03-01T08:33:57;102641.59;;;5.97
69785;BMP280;14177;51.520;6.764;2023-03-01T08:36:31;102638.53;;;6.18
69785;BMP280;14177;51.520;6.764;2023-03-01T08:38:59;102627.56;;;6.33
69785;BMP280;14177;51.520;6.764;2023-03-01T08:41:27;102626.94;;;6.47
69785;BMP280;14177;51.520;6.764;2023-03-01T08:43:55;102633.22;;;6.67
69785;BMP280;14177;51.520;6.764;2023-03-01T08:46:28;102614.63;;;6.94
69785;BMP280;14177;51.520;6.764;2023-03-01T08:48:56;102618.28;;;7.11
69785;BMP280;14177;51.520;6.764;2023-03-01T08:51:25;102621.06;;;7.24
69785;BMP280;14177;51.520;6.764;2023-03-01T08:53:52;102623.81;;;7.40
69785;BMP280;14177;51.520;6.764;2023-03-01T08:56:19;102627.34;;;7.50
69785;BMP280;14177;51.520;6.764;2023-03-01T08:58:48;102629.06;;;7.48
69785;BMP280;14177;51.520;6.764;2023-03-01T09:01:18;102624.94;;;7.65
69785;BMP280;14177;51.520;6.764;2023-03-01T09:03:48;102611.38;;;7.93
69785;BMP280;14177;51.520;6.764;2023-03-01T09:06:16;102615.00;;;8.16
69785;BMP280;14177;51.520;6.764;2023-03-01T09:08:47;102610.84;;;8.30
69785;BMP280;14177;51.520;6.764;2023-03-01T09:11:34;102602.28;;;8.43
69785;BMP280;14177;51.520;6.764;2023-03-01T09:14:05;102597.94;;;8.39
69785;BMP280;14177;51.520;6.764;2023-03-01T09:16:32;102602.38;;;8.57
69785;BMP280;14177;51.520;6.764;2023-03-01T09:19:03;102602.47;;;8.72
69785;BMP280;14177;51.520;6.764;2023-03-01T09:21:30;102598.25;;;8.97
69785;BMP280;14177;51.520;6.764;2023-03-01T09:24:13;102594.84;;;9.22
69785;BMP280;14177;51.520;6.764;2023-03-01T09:26:41;102586.16;;;9.00
69785;BMP280;14177;51.520;6.764;2023-03-01T09:29:08;102584.47;;;9.07
69785;BMP280;14177;51.520;6.764;2023-03-01T09:31:36;102595.72;;;9.19
69785;BMP280;14177;51.520;6.764;2023-03-01T09:34:04;102590.53;;;9.24
69785;BMP280;14177;51.520;6.764;2023-03-01T09:36:32;102585.38;;;9.25
69785;BMP280;14177;51.520;6.764;2023-03-01T09:39:01;102588.81;;;9.26
69785;BMP280;14177;51.520;6.764;2023-03-01T09:42:00;102581.06;;;9.30
69785;BMP280;14177;51.520;6.764;2023-03-01T09:44:54;102583.66;;;9.35
69785;BMP280;14177;51.520;6.764;2023-03-01T09:47:30;102579.34;;;9.53
69785;BMP280;14177;51.520;6.764;2023-03-01T09:50:19;102582.84;;;9.73
69785;BMP280;14177;51.520;6.764;2023-03-01T09:52:54;102577.66;;;9.68
69785;BMP280;14177;51.520;6.764;2023-03-01T09:55:54;102569.00;;;9.86
69785;BMP280;14177;51.520;6.764;2023-03-01T09:58:36;102564.69;;;9.91
69785;BMP280;14177;51.520;6.764;2023-03-01T10:01:33;102559.47;;;9.91
69785;BMP280;14177;51.520;6.764;2023-03-01T10:07:48;102558.59;;;10.22
69785;BMP280;14177;51.520;6.764;2023-03-01T10:09:55;102567.25;;;10.27
69785;BMP280;14177;51.520;6.764;2023-03-01T10:12:33;102556.91;;;10.18
69785;BMP280;14177;51.520;6.764;2023-03-01T10:15:24;102544.78;;;10.14
69785;BMP280;14177;51.520;6.764;2023-03-01T10:18:03;102555.16;;;9.93
69785;BMP280;14177;51.520;6.764;2023-03-01T10:23:12;102541.25;;;10.30
69785;BMP280;14177;51.520;6.764;2023-03-01T10:30:54;102523.56;;;11.12
69785;BMP280;14177;51.520;6.764;2023-03-01T10:33:35;102518.41;;;11.06
69785;BMP280;14177;51.520;6.764;2023-03-01T10:36:03;102527.09;;;11.02
69785;BMP280;14177;51.520;6.764;2023-03-01T10:38:47;102527.88;;;11.21
69785;BMP280;14177;51.520;6.764;2023-03-01T10:41:14;102531.31;;;11.26
69785;BMP280;14177;51.520;6.764;2023-03-01T10:43:51;102533.91;;;11.27
69785;BMP280;14177;51.520;6.764;2023-03-01T10:46:35;102523.50;;;11.24
69785;BMP280;14177;51.520;6.764;2023-03-01T10:49:20;102523.53;;;11.18
69785;BMP280;14177;51.520;6.764;2023-03-01T10:51:50;102500.88;;;11.35
69785;BMP280;14177;51.520;6.764;2023-03-01T10:54:31;102492.91;;;11.62
69785;BMP280;14177;51.520;6.764;2023-03-01T10:57:04;102499.03;;;11.52
69785;BMP280;14177;51.520;6.764;2023-03-01T10:59:38;102496.53;;;11.37
69785;BMP280;14177;51.520;6.764;2023-03-01T11:02:23;102474.88;;;11.32
69785;BMP280;14177;51.520;6.764;2023-03-01T11:07:53;102453.63;;;11.83
69785;BMP280;14177;51.520;6.764;2023-03-01T11:10:35;102461.31;;;11.95
69785;BMP280;14177;51.520;6.764;2023-03-01T11:13:17;102466.94;;;12.34
69785;BMP280;14177;51.520;6.764;2023-03-01T11:16:06;102464.03;;;12.57
69785;BMP280;14177;51.520;6.764;2023-03-01T11:18:34;102471.31;;;12.32
69785;BMP280;14177;51.520;6.764;2023-03-01T11:21:16;102466.16;;;12.28
69785;BMP280;14177;51.520;6.764;2023-03-01T11:23:46;102466.97;;;12.33
69785;BMP280;14177;51.520;6.764;2023-03-01T11:26:15;102463.56;;;12.28
69785;BMP280;14177;51.520;6.764;2023-03-01T11:28:50;102453.88;;;12.37
69785;BMP280;14177;51.520;6.764;2023-03-01T11:31:19;102450.69;;;12.81
69785;BMP280;14177;51.520;6.764;2023-03-01T11:34:11;102439.66;;;13.21
69785;BMP280;14177;51.520;6.764;2023-03-01T11:36:54;102435.97;;;13.32
69785;BMP280;14177;51.520;6.764;2023-03-01T11:40:21;102433.00;;;13.53
69785;BMP280;14177;51.520;6.764;2023-03-01T11:43:19;102434.38;;;13.75
69785;BMP280;14177;51.520;6.764;2023-03-01T11:45:57;102429.91;;;13.80
69785;BMP280;14177;51.520;6.764;2023-03-01T11:57:26;102451.16;;;14.08
69785;BMP280;14177;51.520;6.764;2023-03-01T12:09:44;102435.44;;;14.11
69785;BMP280;14177;51.520;6.764;2023-03-01T12:12:42;102428.44;;;14.11
69785;BMP280;14177;51.520;6.764;2023-03-01T12:18:30;102424.22;;;14.48
69785;BMP280;14177;51.520;6.764;2023-03-01T12:21:35;102416.81;;;14.66
69785;BMP280;14177;51.520;6.764;2023-03-01T12:24:24;102399.91;;;14.81
69785;BMP280;14177;51.520;6.764;2023-03-01T12:27:19;102405.75;;;14.92
69785;BMP280;14177;51.520;6.764;2023-03-01T12:45:00;102379.25;;;14.69
69785;BMP280;14177;51.520;6.764;2023-03-01T12:48:08;102374.38;;;14.54
69785;BMP280;14177;51.520;6.764;2023-03-01T12:50:46;102365.97;;;14.40
69785;BMP280;14177;51.520;6.764;2023-03-01T12:53:37;102361.78;;;14.32
69785;BMP280;14177;51.520;6.764;2023-03-01T12:56:22;102356.34;;;14.42
69785;BMP280;14177;51.520;6.764;2023-03-01T13:11:02;102347.44;;;14.87
69785;BMP280;14177;51.520;6.764;2023-03-01T13:13:31;102348.25;;;14.54
69785;BMP280;14177;51.520;6.764;2023-03-01T13:19:24;102339.91;;;14.37
69785;BMP280;14177;51.520;6.764;2023-03-01T13:21:54;102340.41;;;14.53
69785;BMP280;14177;51.520;6.764;2023-03-01T13:27:22;102333.38;;;14.56
69785;BMP280;14177;51.520;6.764;2023-03-01T13:29:59;102336.56;;;14.68
69785;BMP280;14177;51.520;6.764;2023-03-01T13:32:32;102333.94;;;14.67
69785;BMP280;14177;51.520;6.764;2023-03-01T13:37:47;102318.34;;;14.26
69785;BMP280;14177;51.520;6.764;2023-03-01T13:42:53;102310.25;;;14.38
69785;BMP280;14177;51.520;6.764;2023-03-01T13:45:43;102309.44;;;14.35
69785;BMP280;14177;51.520;6.764;2023-03-01T13:48:33;102293.25;;;14.19
69785;BMP280;14177;51.520;6.764;2023-03-01T13:51:04;102290.56;;;14.22
69785;BMP280;14177;51.520;6.764;2023-03-01T13:53:43;102289.16;;;14.06
69785;BMP280;14177;51.520;6.764;2023-03-01T13:56:20;102283.97;;;14.03
69785;BMP280;14177;51.520;6.764;2023-03-01T13:59:23;102281.50;;;13.97
69785;BMP280;14177;51.520;6.764;2023-03-01T14:02:00;102277.66;;;14.13
69785;BMP280;14177;51.520;6.764;2023-03-01T14:04:37;102276.69;;;14.20
69785;BMP280;14177;51.520;6.764;2023-03-01T14:07:28;102270.41;;;14.27
69785;BMP280;14177;51.520;6.764;2023-03-01T14:10:02;102266.00;;;14.29
69785;BMP280;14177;51.520;6.764;2023-03-01T14:12:44;102268.41;;;14.38
69785;BMP280;14177;51.520;6.764;2023-03-01T14:15:39;102258.09;;;14.32
69785;BMP280;14177;51.520;6.764;2023-03-01T14:18:25;102260.47;;;14.03
69785;BMP280;14177;51.520;6.764;2023-03-01T14:20:57;102256.69;;;13.77
69785;BMP280;14177;51.520;6.764;2023-03-01T14:23:24;102264.78;;;13.66
69785;BMP280;14177;51.520;6.764;2023-03-01T14:25:57;102259.72;;;13.57
69785;BMP280;14177;51.520;6.764;2023-03-01T14:28:29;102254.44;;;13.60
69785;BMP280;14177;51.520;6.764;2023-03-01T14:30:59;102248.97;;;13.72
69785;BMP280;14177;51.520;6.764;2023-03-01T14:33:35;102239.56;;;13.64
69785;BMP280;14177;51.520;6.764;2023-03-01T14:36:12;102241.19;;;13.69
69785;BMP280;14177;51.520;6.764;2023-03-01T14:38:43;102236.75;;;13.74
69785;BMP280;14177;51.520;6.764;2023-03-01T14:41:24;102230.50;;;13.80
69785;BMP280;14177;51.520;6.764;2023-03-01T14:43:57;102226.81;;;13.90
69785;BMP280;14177;51.520;6.764;2023-03-01T14:46:38;102227.00;;;13.81
69785;BMP280;14177;51.520;6.764;2023-03-01T14:49:14;102219.66;;;13.58
69785;BMP280;14177;51.520;6.764;2023-03-01T14:51:51;102219.03;;;13.47
69785;BMP280;14177;51.520;6.764;2023-03-01T14:54:41;102231.28;;;13.44
69785;BMP280;14177;51.520;6.764;2023-03-01T14:57:25;102227.28;;;13.27
69785;BMP280;14177;51.520;6.764;2023-03-01T14:59:57;102231.00;;;13.14
69785;BMP280;14177;51.520;6.764;2023-03-01T15:02:28;102222.34;;;13.12
69785;BMP280;14177;51.520;6.764;2023-03-01T15:05:00;102226.88;;;13.02
69785;BMP280;14177;51.520;6.764;2023-03-01T15:07:35;102225.78;;;13.14
69785;BMP280;14177;51.520;6.764;2023-03-01T15:10:06;102219.44;;;13.28
69785;BMP280;14177;51.520;6.764;2023-03-01T15:12:41;102204.00;;;13.16
69785;BMP280;14177;51.520;6.764;2023-03-01T15:15:36;102219.16;;;12.98
69785;BMP280;14177;51.520;6.764;2023-03-01T15:18:15;102212.50;;;12.79
69785;BMP280;14177;51.520;6.764;2023-03-01T15:20:43;102205.88;;;12.60
69785;BMP280;14177;51.520;6.764;2023-03-01T15:23:23;102208.53;;;12.58
69785;BMP280;14177;51.520;6.764;2023-03-01T15:25:56;102205.94;;;12.57
69785;BMP280;14177;51.520;6.764;2023-03-01T15:28:33;102208.69;;;12.49
69785;BMP280;14177;51.520;6.764;2023-03-01T15:31:26;102202.91;;;12.31
69785;BMP280;14177;51.520;6.764;2023-03-01T15:34:21;102203.25;;;12.08
69785;BMP280;14177;51.520;6.764;2023-03-01T15:36:51;102196.34;;;12.06
69785;BMP280;14177;51.520;6.764;2023-03-01T15:41:56;102204.31;;;11.96
69785;BMP280;14177;51.520;6.764;2023-03-01T15:44:29;102194.78;;;11.95
69785;BMP280;14177;51.520;6.764;2023-03-01T15:47:30;102205.34;;;11.86
69785;BMP280;14177;51.520;6.764;2023-03-01T15:50:00;102194.28;;;11.69
69785;BMP280;14177;51.520;6.764;2023-03-01T15:52:49;102195.44;;;11.45
69785;BMP280;14177;51.520;6.764;2023-03-01T15:55:23;102210.25;;;11.39
69785;BMP280;14177;51.520;6.764;2023-03-01T15:58:09;102194.03;;;11.19
69785;BMP280;14177;51.520;6.764;2023-03-01T16:00:36;102199.25;;;11.14
69785;BMP280;14177;51.520;6.764;2023-03-01T16:03:12;102199.41;;;11.02